Time;durP1;ratioP1;P1;durP2;ratioP2;P2;SDS_P1;SDS_P2;PMS_P1;PMS_P2;Temp;Humidity;BMP_temperature;BMP_pressure;BME280_temperature;BME280_humidity;BME280_pressure;Samples;Min_cycle;Max_cycle;Signal;HPM_P1;HPM_P2
2021/05/17 00:00:16;;;;;;;6.40;6.03;;;10.30;99.90;;;;;;4977108;28;20204;-77
2021/05/17 00:02:43;;;;;;;5.90;5.60;;;10.30;99.90;;;;;;5000297;28;20205;-77
2021/05/17 00:05:11;;;;;;;6.37;6.00;;;10.30;99.90;;;;;;4971823;28;20194;-78
2021/05/17 00:07:37;;;;;;;6.27;5.97;;;10.30;99.90;;;;;;4993116;28;20253;-78
2021/05/17 00:10:06;;;;;;;6.40;6.10;;;10.30;99.90;;;;;;4980922;28;20201;-78
2021/05/17 00:12:33;;;;;;;6.50;6.00;;;10.30;99.90;;;;;;4995510;28;20216;-78
2021/05/17 00:15:00;;;;;;;6.50;6.10;;;10.20;99.90;;;;;;4999702;28;20209;-78
2021/05/17 00:17:27;;;;;;;6.20;5.90;;;10.20;99.90;;;;;;4994396;28;20246;-78
2021/05/17 00:19:53;;;;;;;6.20;5.90;;;10.20;99.90;;;;;;4976893;28;20206;-78
2021/05/17 00:22:20;;;;;;;6.27;5.97;;;10.20;99.90;;;;;;4999686;28;20205;-78
2021/05/17 00:24:47;;;;;;;6.00;5.70;;;10.30;99.90;;;;;;4983145;28;20639;-78
2021/05/17 00:27:14;;;;;;;6.20;5.90;;;10.30;99.90;;;;;;4976176;28;20224;-78
2021/05/17 00:29:41;;;;;;;6.37;5.87;;;10.30;99.90;;;;;;4997477;28;20201;-78
2021/05/17 00:32:09;;;;;;;6.40;6.00;;;10.40;99.90;;;;;;4995341;28;20224;-78
2021/05/17 00:34:36;;;;;;;6.10;5.70;;;10.40;99.90;;;;;;4994626;28;20232;-78
2021/05/17 00:37:02;;;;;;;6.07;5.77;;;10.40;99.90;;;;;;4982785;28;20221;-78
2021/05/17 00:39:29;;;;;;;6.20;5.80;;;10.50;99.90;;;;;;4998923;28;20201;-77
2021/05/17 00:41:56;;;;;;;6.00;5.70;;;10.50;99.90;;;;;;4997714;28;20190;-78
2021/05/17 00:44:22;;;;;;;6.03;5.73;;;10.40;99.90;;;;;;4998071;28;20215;-78
2021/05/17 00:46:51;;;;;;;6.80;6.30;;;10.50;99.90;;;;;;4979796;28;20197;-78
2021/05/17 00:49:18;;;;;;;6.47;5.97;;;10.50;99.90;;;;;;4998418;28;20284;-78
2021/05/17 00:51:45;;;;;;;6.60;6.20;;;10.50;99.90;;;;;;4983022;28;20615;-78
2021/05/17 00:54:12;;;;;;;6.30;6.00;;;10.50;99.90;;;;;;4982767;28;20227;-78
2021/05/17 00:56:40;;;;;;;6.43;6.03;;;10.50;99.90;;;;;;4999783;28;20300;-78
2021/05/17 00:59:07;;;;;;;6.40;6.10;;;10.50;99.90;;;;;;4997665;28;20202;-78
2021/05/17 01:01:35;;;;;;;6.30;6.00;;;10.40;99.90;;;;;;4978455;28;20198;-78
2021/05/17 01:04:02;;;;;;;6.40;6.07;;;10.40;99.90;;;;;;4982377;28;20211;-78
2021/05/17 01:06:33;;;;;;;6.30;6.00;;;10.30;99.90;;;;;;4993469;28;20230;-78
2021/05/17 01:09:04;;;;;;;6.00;5.70;;;10.30;99.90;;;;;;4996709;28;20185;-78
2021/05/17 01:11:34;;;;;;;6.43;6.07;;;10.20;99.90;;;;;;4996190;28;20224;-78
2021/05/17 01:14:03;;;;;;;5.90;5.60;;;10.20;99.90;;;;;;4981820;28;20204;-78
2021/05/17 01:16:31;;;;;;;5.90;5.60;;;10.20;99.90;;;;;;4986085;28;20581;-77
2021/05/17 01:18:58;;;;;;;5.67;5.40;;;10.20;99.90;;;;;;4983157;28;20241;-78
2021/05/17 01:21:33;;;;;;;5.83;5.53;;;10.20;99.90;;;;;;4977201;28;20197;-78
2021/05/17 01:24:00;;;;;;;6.40;5.73;;;10.20;99.90;;;;;;4993903;28;20204;-78
2021/05/17 01:26:28;;;;;;;5.90;5.60;;;10.20;99.90;;;;;;4994210;28;20667;-78
2021/05/17 01:28:57;;;;;;;5.93;5.63;;;10.20;99.90;;;;;;4978016;28;20248;-78
2021/05/17 01:31:24;;;;;;;6.00;5.70;;;10.20;99.90;;;;;;4996341;28;20685;-78
2021/05/17 01:33:51;;;;;;;6.10;5.70;;;10.30;99.90;;;;;;4996674;28;20554;-78
2021/05/17 01:36:22;;;;;;;6.10;5.70;;;10.30;99.90;;;;;;4994014;28;20264;-78
2021/05/17 01:38:49;;;;;;;5.50;5.27;;;10.20;99.90;;;;;;4975300;28;20356;-78
2021/05/17 01:41:19;;;;;;;5.97;5.60;;;10.20;99.90;;;;;;4976190;28;20203;-78
2021/05/17 01:43:48;;;;;;;5.80;5.50;;;10.20;99.90;;;;;;4974853;28;20280;-78
2021/05/17 01:46:17;;;;;;;5.37;5.17;;;10.10;99.90;;;;;;4979404;28;20265;-78
2021/05/17 01:48:48;;;;;;;5.70;5.40;;;10.00;99.90;;;;;;4981762;28;20363;-78
2021/05/17 01:51:18;;;;;;;5.90;5.60;;;9.90;99.90;;;;;;4999558;28;20223;-78
2021/05/17 01:53:47;;;;;;;5.97;5.67;;;9.90;99.90;;;;;;4994577;28;20614;-78
2021/05/17 01:56:14;;;;;;;6.10;5.80;;;9.90;99.90;;;;;;4994574;28;20205;-78
2021/05/17 01:58:42;;;;;;;6.13;5.73;;;9.90;99.90;;;;;;4976357;28;20716;-78
2021/05/17 02:01:10;;;;;;;5.93;5.63;;;9.90;99.90;;;;;;4983145;28;20658;-77
2021/05/17 02:03:38;;;;;;;5.83;5.53;;;9.90;99.90;;;;;;4997385;28;20229;-78
2021/05/17 02:06:07;;;;;;;6.87;6.47;;;9.90;99.90;;;;;;4979263;28;20284;-78
2021/05/17 02:08:34;;;;;;;6.40;6.10;;;9.90;99.90;;;;;;4991652;28;20224;-78
2021/05/17 02:11:02;;;;;;;6.90;6.60;;;9.90;99.90;;;;;;4979741;28;20626;-78
2021/05/17 02:13:36;;;;;;;6.20;5.90;;;9.90;99.90;;;;;;4991791;28;20219;-78
2021/05/17 02:16:04;;;;;;;6.27;5.67;;;9.90;99.90;;;;;;4981200;28;20205;-78
2021/05/17 02:18:35;;;;;;;6.20;5.90;;;9.90;99.90;;;;;;4974616;28;20229;-78
2021/05/17 02:21:02;;;;;;;6.50;6.20;;;10.00;99.90;;;;;;4991675;28;20285;-78
2021/05/17 02:23:29;;;;;;;6.90;6.50;;;10.00;99.90;;;;;;4998185;28;20562;-78
2021/05/17 02:25:55;;;;;;;6.00;5.70;;;9.90;99.90;;;;;;4994479;28;20257;-77
2021/05/17 02:28:23;;;;;;;6.47;6.10;;;9.90;99.90;;;;;;5050665;23;20580;-77
2021/05/17 02:30:50;;;;;;;6.73;6.30;;;9.90;99.90;;;;;;5062161;28;20723;-77
2021/05/17 02:33:18;;;;;;;6.90;6.60;;;9.80;99.90;;;;;;5066585;28;20195;-77
2021/05/17 02:35:45;;;;;;;6.30;6.00;;;9.80;99.90;;;;;;5060311;28;20214;-77
2021/05/17 02:38:14;;;;;;;6.20;5.90;;;9.70;99.90;;;;;;5069779;28;20202;-83
2021/05/17 02:40:45;;;;;;;6.23;5.93;;;9.70;99.90;;;;;;5067231;28;20286;-77
2021/05/17 02:43:13;;;;;;;6.10;5.80;;;9.70;99.90;;;;;;5063852;28;20558;-77
2021/05/17 02:46:08;;;;;;;6.17;5.83;;;9.70;99.90;;;;;;5067490;28;20290;-77
2021/05/17 02:48:41;;;;;;;6.20;5.90;;;9.70;99.90;;;;;;5062587;28;20279;-76
2021/05/17 02:51:09;;;;;;;6.40;6.00;;;9.70;99.90;;;;;;5070533;28;20788;-77
2021/05/17 02:54:02;;;;;;;6.60;6.20;;;9.70;99.90;;;;;;5064505;28;20264;-79
2021/05/17 02:56:33;;;;;;;6.60;6.30;;;9.80;99.90;;;;;;5065378;28;20578;-75
2021/05/17 02:59:05;;;;;;;7.20;6.63;;;9.90;99.90;;;;;;5060699;28;20202;-75
2021/05/17 03:01:37;;;;;;;6.20;5.80;;;9.90;99.90;;;;;;5061924;28;20293;-76
2021/05/17 03:04:13;;;;;;;6.30;6.00;;;10.00;99.90;;;;;;5070368;28;20230;-76
2021/05/17 03:06:41;;;;;;;6.63;6.33;;;10.10;99.90;;;;;;5070102;28;20220;-76
2021/05/17 03:09:10;;;;;;;6.97;6.60;;;10.10;99.90;;;;;;5060334;28;20623;-76
2021/05/17 03:11:51;;;;;;;6.70;6.30;;;10.10;99.90;;;;;;5064026;28;20222;-76
2021/05/17 03:14:21;;;;;;;6.83;6.33;;;10.10;99.90;;;;;;5063614;28;20574;-76
2021/05/17 03:16:58;;;;;;;6.60;6.30;;;10.10;99.90;;;;;;5062024;28;20235;-76
2021/05/17 03:19:26;;;;;;;6.30;5.93;;;10.20;99.90;;;;;;5063404;28;20222;-76
2021/05/17 03:21:54;;;;;;;6.60;6.20;;;10.20;99.90;;;;;;5063319;28;20218;-76
2021/05/17 03:24:22;;;;;;;7.10;6.70;;;10.20;99.90;;;;;;5066835;28;20199;-75
2021/05/17 03:26:50;;;;;;;7.30;6.90;;;10.10;99.90;;;;;;5067285;28;20209;-76
2021/05/17 03:29:16;;;;;;;6.60;6.20;;;10.10;99.90;;;;;;5060095;28;20219;-76
2021/05/17 03:31:42;;;;;;;7.03;6.57;;;10.10;99.90;;;;;;5067430;28;20217;-76
2021/05/17 03:34:09;;;;;;;7.50;7.10;;;10.10;99.90;;;;;;5064331;28;20407;-76
2021/05/17 03:36:38;;;;;;;8.10;7.60;;;10.10;99.90;;;;;;5049648;28;20663;-76
2021/05/17 03:39:05;;;;;;;7.80;7.30;;;10.10;99.90;;;;;;5070088;28;20877;-76
2021/05/17 03:41:31;;;;;;;7.13;6.73;;;10.10;99.90;;;;;;5063905;28;20214;-76
2021/05/17 03:43:58;;;;;;;7.50;7.00;;;10.10;99.90;;;;;;5071060;28;20195;-76
2021/05/17 03:46:24;;;;;;;7.50;7.00;;;10.10;99.90;;;;;;5068470;28;20194;-76
2021/05/17 03:48:50;;;;;;;7.07;6.67;;;10.20;99.90;;;;;;5048626;28;20222;-76
2021/05/17 03:51:17;;;;;;;6.70;6.30;;;10.20;99.90;;;;;;5063864;28;20203;-77
2021/05/17 03:53:44;;;;;;;6.50;6.20;;;10.20;99.90;;;;;;5067652;28;20194;-76
2021/05/17 03:56:10;;;;;;;6.67;6.20;;;10.20;99.90;;;;;;5064096;28;20194;-76
2021/05/17 03:58:36;;;;;;;6.30;6.00;;;10.30;99.90;;;;;;5050113;28;20223;-78
2021/05/17 04:01:03;;;;;;;7.20;6.50;;;10.30;99.90;;;;;;5058312;28;20212;-78
2021/05/17 04:03:29;;;;;;;6.43;5.90;;;10.30;99.90;;;;;;5058292;28;20194;-78
2021/05/17 04:06:08;;;;;;;7.27;6.77;;;10.30;99.90;;;;;;5047519;28;20706;-78
2021/05/17 04:14:04;;;;;;;3.30;3.10;;;10.40;99.90;;;;;;5069749;28;20187;-78
2021/05/17 04:16:30;;;;;;;3.60;3.10;;;10.30;99.90;;;;;;5070107;28;20608;-78
2021/05/17 04:18:56;;;;;;;3.10;2.90;;;10.30;99.90;;;;;;5073891;28;20223;-77
2021/05/17 04:21:23;;;;;;;3.00;2.90;;;10.30;99.90;;;;;;5057156;28;20210;-78
2021/05/17 04:23:49;;;;;;;3.03;2.80;;;10.30;99.90;;;;;;5078901;28;20199;-78
2021/05/17 04:26:15;;;;;;;2.80;2.70;;;10.40;99.90;;;;;;5068767;28;20199;-77
2021/05/17 04:28:43;;;;;;;3.83;3.10;;;10.40;99.90;;;;;;5068751;28;20227;-78
2021/05/17 04:31:09;;;;;;;3.77;3.27;;;10.30;99.90;;;;;;5069654;28;20203;-77
2021/05/17 04:33:35;;;;;;;3.50;3.10;;;10.40;99.90;;;;;;5051151;28;20280;-77
2021/05/17 04:36:01;;;;;;;3.30;3.07;;;10.40;99.90;;;;;;5055932;28;20680;-78
2021/05/17 04:38:28;;;;;;;5.40;3.20;;;10.40;99.90;;;;;;5065818;28;20219;-77
2021/05/17 04:40:54;;;;;;;3.20;3.00;;;10.30;99.90;;;;;;5071712;28;20190;-78
2021/05/17 04:43:20;;;;;;;3.50;2.93;;;10.30;99.90;;;;;;5053907;28;20256;-78
2021/05/17 04:45:48;;;;;;;3.13;3.00;;;10.30;99.90;;;;;;5073529;28;20190;-78
2021/05/17 04:48:14;;;;;;;3.60;3.40;;;10.30;99.90;;;;;;5070212;28;20233;-79
2021/05/17 04:50:40;;;;;;;3.53;3.20;;;10.30;99.90;;;;;;5067941;28;20188;-77
2021/05/17 04:53:07;;;;;;;3.20;3.00;;;10.30;99.90;;;;;;5070958;28;20203;-78
2021/05/17 04:55:35;;;;;;;3.23;3.00;;;10.30;99.90;;;;;;5072393;28;20202;-77
2021/05/17 04:58:01;;;;;;;3.50;3.30;;;10.30;99.90;;;;;;5056937;28;20214;-78
2021/05/17 05:00:28;;;;;;;3.57;3.30;;;10.30;99.90;;;;;;5056086;28;20254;-78
2021/05/17 05:02:55;;;;;;;4.10;3.37;;;10.40;99.90;;;;;;5068545;28;20199;-78
2021/05/17 05:05:21;;;;;;;3.50;3.20;;;10.40;99.90;;;;;;5063486;28;20198;-78
2021/05/17 05:07:47;;;;;;;3.43;3.20;;;10.40;99.90;;;;;;5055487;28;20271;-78
2021/05/17 05:10:14;;;;;;;3.73;3.10;;;10.40;99.90;;;;;;5067177;28;20191;-78
2021/05/17 05:12:40;;;;;;;3.30;3.10;;;10.50;99.90;;;;;;5064024;28;20244;-78
2021/05/17 05:15:07;;;;;;;3.30;3.00;;;10.60;99.90;;;;;;5056809;28;20592;-77
2021/05/17 05:17:34;;;;;;;3.37;3.13;;;10.70;99.90;;;;;;5066682;28;20215;-78
2021/05/17 05:20:01;;;;;;;3.20;3.03;;;10.80;99.90;;;;;;5057408;28;20195;-79
2021/05/17 05:22:27;;;;;;;3.30;3.10;;;11.00;99.90;;;;;;5072185;28;20195;-78
2021/05/17 05:24:56;;;;;;;3.50;3.30;;;11.00;99.90;;;;;;5064907;28;20193;-79
2021/05/17 05:27:26;;;;;;;3.20;3.00;;;11.10;99.90;;;;;;5077548;28;20250;-79
2021/05/17 05:30:13;;;;;;;3.20;3.00;;;11.30;99.90;;;;;;5071444;28;20199;-78
2021/05/17 05:32:47;;;;;;;3.10;2.90;;;11.40;99.90;;;;;;5054047;28;20225;-78
2021/05/17 05:35:14;;;;;;;6.80;6.40;;;11.70;99.90;;;;;;5049689;28;20203;-76
2021/05/17 05:37:40;;;;;;;5.90;5.60;;;11.80;99.90;;;;;;5058003;28;20223;-78
2021/05/17 05:40:08;;;;;;;7.13;6.73;;;12.00;99.90;;;;;;5076223;28;20207;-77
2021/05/17 05:42:34;;;;;;;3.20;3.00;;;12.50;99.90;;;;;;5074243;28;20228;-78
2021/05/17 05:45:04;;;;;;;4.30;4.07;;;12.60;99.90;;;;;;5070997;28;20230;-78
2021/05/17 05:47:30;;;;;;;5.13;4.83;;;12.50;99.90;;;;;;5076281;28;20234;-81
2021/05/17 05:49:56;;;;;;;5.63;5.33;;;12.50;99.90;;;;;;5050325;28;20200;-79
2021/05/17 05:52:23;;;;;;;5.13;4.73;;;12.40;99.90;;;;;;5080150;28;20279;-78
2021/05/17 05:54:50;;;;;;;2.53;2.30;;;12.40;99.90;;;;;;5073117;28;20653;-78
2021/05/17 05:57:17;;;;;;;2.77;2.60;;;12.50;99.90;;;;;;5056328;28;20687;-78
2021/05/17 05:59:44;;;;;;;5.50;5.20;;;13.20;99.90;;;;;;5072856;28;20220;-78
2021/05/17 06:02:11;;;;;;;2.93;2.83;;;13.60;99.90;;;;;;5058058;28;20198;-78
2021/05/17 06:04:37;;;;;;;5.83;5.43;;;14.00;99.90;;;;;;5073131;28;20685;-77
2021/05/17 06:07:04;;;;;;;3.93;3.63;;;14.60;99.90;;;;;;5056944;28;20202;-78
2021/05/17 06:09:31;;;;;;;3.20;3.00;;;15.20;99.90;;;;;;5076410;28;20207;-78
2021/05/17 06:11:59;;;;;;;4.30;2.87;;;15.30;99.90;;;;;;5076651;28;20211;-78
2021/05/17 06:14:26;;;;;;;3.57;3.00;;;15.30;99.90;;;;;;5077748;28;20203;-78
2021/05/17 06:16:53;;;;;;;5.67;5.20;;;15.50;99.90;;;;;;5058197;28;20272;-78
2021/05/17 06:19:20;;;;;;;4.00;3.80;;;15.50;99.90;;;;;;5056054;28;20267;-78
2021/05/17 06:21:47;;;;;;;3.33;3.00;;;15.60;99.90;;;;;;5062588;28;20199;-78
2021/05/17 06:24:17;;;;;;;3.60;3.30;;;15.50;99.90;;;;;;5082671;28;20206;-78
2021/05/17 06:26:45;;;;;;;5.00;4.70;;;15.20;99.90;;;;;;5083037;28;20221;-79
2021/05/17 06:29:12;;;;;;;6.90;6.20;;;14.90;99.90;;;;;;5064041;28;20236;-78
2021/05/17 06:31:44;;;;;;;6.80;6.30;;;14.90;99.90;;;;;;5064768;28;20228;-79
2021/05/17 06:34:10;;;;;;;6.47;6.00;;;14.80;99.90;;;;;;5073404;28;20603;-78
2021/05/17 06:36:37;;;;;;;7.00;6.50;;;14.60;99.90;;;;;;5068288;28;20670;-76
2021/05/17 06:39:05;;;;;;;6.57;5.97;;;14.50;99.90;;;;;;5067535;28;20210;-76
2021/05/17 06:41:32;;;;;;;6.20;5.80;;;14.30;99.90;;;;;;5052302;28;20201;-76
2021/05/17 06:44:00;;;;;;;6.60;6.10;;;14.10;99.90;;;;;;5040941;28;20581;-76
2021/05/17 06:46:26;;;;;;;6.53;6.10;;;14.00;99.90;;;;;;5062685;28;20195;-77
2021/05/17 06:48:53;;;;;;;6.80;6.30;;;13.80;99.90;;;;;;5044423;28;20225;-76
2021/05/17 06:51:20;;;;;;;9.17;6.57;;;13.70;99.90;;;;;;5060725;28;20240;-76
2021/05/17 06:53:48;;;;;;;7.57;6.70;;;13.50;99.90;;;;;;5060621;28;20195;-77
2021/05/17 06:56:20;;;;;;;8.27;7.50;;;13.40;99.90;;;;;;5054183;28;20209;-76
2021/05/17 06:58:55;;;;;;;7.40;6.90;;;13.30;99.90;;;;;;5066914;28;20210;-76
2021/05/17 07:01:24;;;;;;;7.67;7.10;;;13.40;99.90;;;;;;5047788;28;20194;-77
2021/05/17 07:03:51;;;;;;;7.23;6.83;;;13.40;99.90;;;;;;5050226;28;20218;-76
2021/05/17 07:06:22;;;;;;;7.90;7.37;;;13.50;99.90;;;;;;5052631;28;20201;-76
2021/05/17 07:11:43;;;;;;;7.67;7.17;;;13.50;99.90;;;;;;5067436;28;20210;-76
2021/05/17 07:14:09;;;;;;;7.67;7.07;;;13.40;99.90;;;;;;5049973;28;20221;-76
2021/05/17 07:16:37;;;;;;;7.50;6.90;;;13.30;99.90;;;;;;5055696;28;20210;-76
2021/05/17 07:19:03;;;;;;;7.90;7.10;;;13.20;99.90;;;;;;5066528;28;20276;-76
2021/05/17 07:24:14;;;;;;;7.40;6.80;;;13.00;99.90;;;;;;5069031;28;20195;-76
2021/05/17 07:26:41;;;;;;;7.80;7.10;;;12.90;99.90;;;;;;5051708;28;20287;-76
2021/05/17 07:29:10;;;;;;;7.70;7.20;;;12.70;99.90;;;;;;5066405;28;20218;-76
2021/05/17 07:31:37;;;;;;;7.67;7.10;;;12.70;99.90;;;;;;5056381;28;20694;-78
2021/05/17 07:34:04;;;;;;;7.37;6.97;;;12.70;99.90;;;;;;5052123;28;20211;-76
2021/05/17 07:36:30;;;;;;;7.50;7.00;;;12.70;99.90;;;;;;5078403;28;20640;-76
2021/05/17 07:38:57;;;;;;;7.00;6.60;;;13.00;99.90;;;;;;5077893;28;20732;-76
2021/05/17 07:41:23;;;;;;;7.50;7.03;;;13.30;99.90;;;;;;5077827;28;20206;-77
2021/05/17 07:43:49;;;;;;;7.60;7.00;;;13.60;99.90;;;;;;5075554;28;20710;-76
2021/05/17 07:46:16;;;;;;;7.13;6.73;;;13.70;99.90;;;;;;5074893;28;20198;-76
2021/05/17 07:51:28;;;;;;;7.40;6.80;;;13.80;99.90;;;;;;5075478;28;20206;-76
2021/05/17 07:53:54;;;;;;;7.40;6.90;;;13.90;99.90;;;;;;5043246;28;20762;-76
2021/05/17 07:56:20;;;;;;;7.10;6.50;;;13.90;99.90;;;;;;5078429;28;20199;-77
2021/05/17 07:58:49;;;;;;;6.50;6.10;;;14.00;99.90;;;;;;5058886;28;20242;-76
2021/05/17 08:01:15;;;;;;;7.00;6.60;;;14.30;99.90;;;;;;5076676;28;20187;-76
2021/05/17 08:03:41;;;;;;;6.80;6.40;;;14.80;99.90;;;;;;5077822;28;20200;-76
2021/05/17 08:06:09;;;;;;;6.83;6.33;;;15.30;99.90;;;;;;5059453;28;20197;-76
2021/05/17 08:08:36;;;;;;;7.10;6.70;;;15.90;99.90;;;;;;5075589;28;20226;-76
2021/05/17 08:11:04;;;;;;;7.30;6.80;;;16.50;99.90;;;;;;5059367;28;20197;-76
2021/05/17 08:13:30;;;;;;;6.13;5.73;;;17.00;99.90;;;;;;5077865;28;20202;-76
2021/05/17 08:15:57;;;;;;;3.27;3.17;;;17.60;99.90;;;;;;5042510;28;20193;-76
2021/05/17 08:18:24;;;;;;;4.03;3.73;;;18.30;99.90;;;;;;5054474;28;20218;-76
2021/05/17 08:20:50;;;;;;;6.53;6.13;;;18.40;99.90;;;;;;5053412;28;20240;-76
2021/05/17 08:23:17;;;;;;;7.00;6.60;;;17.80;99.90;;;;;;5064349;28;20190;-79
2021/05/17 08:25:45;;;;;;;6.37;5.97;;;17.80;99.90;;;;;;5049770;28;20203;-76
2021/05/17 08:28:11;;;;;;;7.43;6.83;;;17.60;99.90;;;;;;5048893;28;20226;-76
2021/05/17 08:30:42;;;;;;;5.97;5.57;;;17.20;99.90;;;;;;5049108;28;20199;-76
2021/05/17 08:33:09;;;;;;;7.83;7.23;;;16.50;99.90;;;;;;5042406;28;20220;-76
2021/05/17 08:35:36;;;;;;;7.50;7.10;;;15.90;99.90;;;;;;5052422;28;20203;-76
2021/05/17 08:38:03;;;;;;;7.10;6.60;;;15.60;99.90;;;;;;5059232;28;20299;-76
2021/05/17 08:40:34;;;;;;;7.43;6.93;;;15.00;99.90;;;;;;5055059;28;20287;-76
2021/05/17 08:43:01;;;;;;;7.23;6.70;;;15.00;99.90;;;;;;5043758;28;20197;-77
2021/05/17 08:45:27;;;;;;;6.93;6.47;;;15.30;99.90;;;;;;5063260;28;20200;-78
2021/05/17 08:47:54;;;;;;;6.80;6.33;;;15.50;99.90;;;;;;5072742;28;20362;-78
2021/05/17 08:50:21;;;;;;;7.63;7.10;;;15.90;99.90;;;;;;5081665;28;20209;-78
2021/05/17 08:52:47;;;;;;;7.57;7.17;;;16.30;99.90;;;;;;5081128;28;20217;-77
2021/05/17 08:55:15;;;;;;;7.40;6.93;;;16.60;99.90;;;;;;5062492;28;20205;-77
2021/05/17 08:57:43;;;;;;;7.47;7.00;;;16.40;99.90;;;;;;5079464;28;20604;-78
2021/05/17 09:00:12;;;;;;;7.70;7.30;;;16.20;99.90;;;;;;5078565;28;20195;-77
2021/05/17 09:02:38;;;;;;;7.80;7.30;;;16.00;99.90;;;;;;5079281;28;20665;-77
2021/05/17 09:05:13;;;;;;;7.83;7.13;;;15.50;99.90;;;;;;5079289;28;20236;-77
2021/05/17 09:07:44;;;;;;;6.93;6.53;;;15.00;99.90;;;;;;5075627;28;20219;-77
2021/05/17 09:10:20;;;;;;;7.60;7.10;;;15.00;99.90;;;;;;5077270;28;20237;-77
2021/05/17 09:12:56;;;;;;;7.47;6.90;;;15.30;99.90;;;;;;5078313;28;20546;-77
2021/05/17 09:15:35;;;;;;;7.03;6.63;;;15.50;99.90;;;;;;5058841;28;20203;-77
2021/05/17 09:18:04;;;;;;;6.90;6.37;;;15.90;99.90;;;;;;5057532;28;20223;-77
2021/05/17 09:20:35;;;;;;;6.60;6.20;;;16.30;99.90;;;;;;5076962;28;20304;-78
2021/05/17 09:23:09;;;;;;;6.50;6.13;;;16.70;99.90;;;;;;5062476;28;20221;-78
2021/05/17 09:25:36;;;;;;;7.03;6.47;;;17.30;99.90;;;;;;5080244;28;20560;-77
2021/05/17 09:28:04;;;;;;;7.43;7.03;;;17.60;99.90;;;;;;5080977;28;20231;-76
2021/05/17 09:30:48;;;;;;;6.90;6.50;;;17.50;99.90;;;;;;5082713;28;20216;-77
2021/05/17 09:33:16;;;;;;;7.07;6.60;;;17.70;99.90;;;;;;5079490;28;20226;-77
2021/05/17 09:35:45;;;;;;;6.80;6.30;;;17.90;99.90;;;;;;5083119;28;20198;-78
2021/05/17 09:38:19;;;;;;;7.83;7.13;;;18.20;99.90;;;;;;5081430;28;20216;-77
2021/05/17 09:40:46;;;;;;;6.30;5.90;;;18.50;99.90;;;;;;5077904;28;20192;-78
2021/05/17 09:43:16;;;;;;;6.80;6.40;;;18.70;99.90;;;;;;5078301;28;20201;-77
2021/05/17 09:45:45;;;;;;;6.73;6.30;;;18.80;99.90;;;;;;5078523;28;20202;-78
2021/05/17 09:48:12;;;;;;;6.70;6.30;;;18.70;99.90;;;;;;5051780;28;20231;-76
2021/05/17 09:50:58;;;;;;;4.90;4.50;;;18.50;99.90;;;;;;5079821;28;20569;-78
2021/05/17 09:53:26;;;;;;;4.47;4.07;;;18.50;99.90;;;;;;5078319;28;20247;-77
2021/05/17 09:55:52;;;;;;;5.70;5.30;;;18.30;99.90;;;;;;5078484;28;20192;-77
2021/05/17 09:58:33;;;;;;;6.50;6.10;;;18.10;99.90;;;;;;5078241;28;20222;-77
2021/05/17 10:01:16;;;;;;;6.20;5.80;;;17.80;99.90;;;;;;5076934;28;20197;-77
2021/05/17 10:03:45;;;;;;;6.40;5.90;;;17.50;99.90;;;;;;5068973;28;20200;-78
2021/05/17 10:06:16;;;;;;;6.27;5.90;;;17.50;99.90;;;;;;5066103;28;20194;-77
2021/05/17 10:08:43;;;;;;;6.90;6.50;;;17.80;99.90;;;;;;5050228;28;20222;-78
2021/05/17 10:11:10;;;;;;;6.30;6.00;;;18.20;99.90;;;;;;5075261;28;20192;-78
2021/05/17 10:13:38;;;;;;;6.60;6.20;;;18.10;99.90;;;;;;5075728;28;20525;-79
2021/05/17 10:16:07;;;;;;;7.07;6.67;;;18.10;99.90;;;;;;5057818;28;20195;-79
2021/05/17 10:18:34;;;;;;;6.90;6.40;;;17.80;99.90;;;;;;5056572;28;20649;-78
2021/05/17 10:21:01;;;;;;;6.60;6.10;;;17.50;99.90;;;;;;5068293;28;20226;-78
2021/05/17 10:23:27;;;;;;;6.30;5.90;;;17.00;99.90;;;;;;5065692;28;20203;-77
2021/05/17 10:26:06;;;;;;;6.10;5.70;;;16.80;99.90;;;;;;5055598;28;20202;-77
2021/05/17 10:28:34;;;;;;;6.53;5.90;;;16.50;99.90;;;;;;5050663;28;20233;-78
2021/05/17 10:31:08;;;;;;;6.90;6.30;;;16.30;99.90;;;;;;5073856;28;20305;-78
2021/05/17 10:33:35;;;;;;;6.33;5.93;;;16.40;99.90;;;;;;5064512;28;20342;-78
2021/05/17 10:36:05;;;;;;;7.60;7.10;;;16.60;99.90;;;;;;5065590;28;20203;-77
2021/05/17 10:38:37;;;;;;;6.13;5.70;;;16.90;99.90;;;;;;5066079;28;20568;-78
2021/05/17 10:41:43;;;;;;;5.70;5.40;;;17.00;99.90;;;;;;5052789;28;20206;-78
2021/05/17 10:44:13;;;;;;;6.13;5.53;;;17.30;99.90;;;;;;5061609;28;20259;-77
2021/05/17 10:46:42;;;;;;;6.20;5.80;;;17.60;99.90;;;;;;5051399;28;20214;-78
2021/05/17 10:49:26;;;;;;;5.60;5.30;;;17.90;99.90;;;;;;5056598;28;20215;-78
2021/05/17 10:51:54;;;;;;;5.77;5.37;;;17.90;99.90;;;;;;5055200;28;20240;-78
2021/05/17 10:54:26;;;;;;;6.10;5.60;;;18.00;99.90;;;;;;5065904;28;20222;-77
2021/05/17 10:56:56;;;;;;;5.77;5.47;;;17.80;99.90;;;;;;5074395;28;20191;-78
2021/05/17 11:02:17;;;;;;;5.87;5.50;;;17.40;99.90;;;;;;5048413;28;20191;-77
2021/05/17 11:04:54;;;;;;;5.90;5.53;;;17.60;99.90;;;;;;5070244;28;20198;-78
2021/05/17 11:07:24;;;;;;;5.80;5.40;;;17.90;99.90;;;;;;5059373;28;20221;-78
2021/05/17 11:09:59;;;;;;;5.90;5.40;;;17.80;99.90;;;;;;5075337;28;20675;-78
2021/05/17 11:13:00;;;;;;;5.60;5.30;;;17.50;99.90;;;;;;5047305;28;20218;-78
2021/05/17 11:15:28;;;;;;;5.47;5.17;;;17.90;99.90;;;;;;5067353;28;20211;-79
2021/05/17 11:18:03;;;;;;;5.60;5.30;;;18.40;99.90;;;;;;5044152;28;20293;-80
2021/05/17 11:20:48;;;;;;;5.90;5.50;;;18.70;99.90;;;;;;5045690;28;20230;-78
2021/05/17 11:23:16;;;;;;;6.00;5.60;;;18.50;99.90;;;;;;5068524;28;20188;-78
2021/05/17 11:25:52;;;;;;;6.13;5.77;;;18.40;99.90;;;;;;5067094;28;20203;-78
2021/05/17 11:28:42;;;;;;;5.80;5.47;;;18.10;99.90;;;;;;5065082;28;20219;-78
2021/05/17 11:31:14;;;;;;;6.30;5.90;;;17.70;99.90;;;;;;5063629;28;20282;-78
2021/05/17 11:33:48;;;;;;;5.90;5.60;;;17.60;99.90;;;;;;5046709;28;20703;-78
2021/05/17 11:36:16;;;;;;;5.90;5.60;;;17.60;99.90;;;;;;5063280;28;20191;-78
2021/05/17 11:39:18;;;;;;;5.60;5.30;;;17.60;99.90;;;;;;5045260;28;20694;-78
2021/05/17 11:41:47;;;;;;;6.20;5.80;;;17.50;99.90;;;;;;5056757;28;20257;-78
2021/05/17 11:44:17;;;;;;;6.00;5.70;;;17.60;99.90;;;;;;5065642;28;20916;-80
2021/05/17 11:46:46;;;;;;;5.80;5.50;;;17.50;99.90;;;;;;5063841;28;20202;-78
2021/05/17 11:49:16;;;;;;;6.30;5.90;;;17.50;99.90;;;;;;5073969;28;20221;-78
2021/05/17 11:51:47;;;;;;;6.00;5.70;;;17.50;99.90;;;;;;5067568;28;20276;-76
2021/05/17 11:54:13;;;;;;;5.90;5.60;;;17.50;99.90;;;;;;5071128;28;20188;-77
2021/05/17 11:56:41;;;;;;;5.80;5.50;;;17.30;99.90;;;;;;5067913;28;20195;-77
2021/05/17 11:59:13;;;;;;;5.60;5.30;;;17.30;99.90;;;;;;5075457;28;20652;-78
2021/05/17 12:01:42;;;;;;;5.90;5.50;;;17.60;99.90;;;;;;5078117;28;20194;-77
2021/05/17 12:04:20;;;;;;;5.53;5.30;;;17.30;99.90;;;;;;5078531;28;20616;-77
2021/05/17 12:06:50;;;;;;;5.97;5.50;;;17.30;99.90;;;;;;5078637;28;20236;-77
2021/05/17 12:09:38;;;;;;;5.60;5.30;;;17.20;99.90;;;;;;5074050;28;20206;-77
2021/05/17 12:12:08;;;;;;;5.60;5.30;;;16.90;99.90;;;;;;5069918;28;20233;-78
2021/05/17 12:14:35;;;;;;;5.70;5.40;;;16.60;99.90;;;;;;5059410;28;20201;-77
2021/05/17 12:17:04;;;;;;;5.57;5.07;;;16.60;99.90;;;;;;5063792;28;20205;-78
2021/05/17 12:19:32;;;;;;;5.27;4.97;;;16.50;99.90;;;;;;5078208;28;20227;-78
2021/05/17 12:21:59;;;;;;;4.90;4.70;;;16.70;99.90;;;;;;5078983;28;20666;-77
2021/05/17 12:24:28;;;;;;;5.67;5.37;;;16.90;99.90;;;;;;5079914;28;20266;-77
2021/05/17 12:26:57;;;;;;;5.70;5.40;;;17.00;99.90;;;;;;5062410;28;20215;-78
2021/05/17 12:29:24;;;;;;;5.60;5.30;;;17.10;99.90;;;;;;5079610;28;20328;-78
2021/05/17 12:31:51;;;;;;;5.60;5.30;;;17.30;99.90;;;;;;5053643;28;20226;-78
2021/05/17 12:34:17;;;;;;;5.60;5.30;;;17.30;99.90;;;;;;5052036;28;20224;-77
2021/05/17 12:36:45;;;;;;;5.50;5.20;;;17.50;99.90;;;;;;5077905;28;20198;-77
2021/05/17 12:39:17;;;;;;;5.80;5.40;;;17.60;99.90;;;;;;5077161;28;20619;-77
2021/05/17 12:41:47;;;;;;;5.93;5.63;;;18.00;99.90;;;;;;5076055;28;20198;-78
2021/05/17 12:44:36;;;;;;;5.70;5.40;;;18.10;99.90;;;;;;5074453;28;20213;-78
2021/05/17 12:47:04;;;;;;;6.20;5.90;;;18.00;99.90;;;;;;5060235;28;20199;-78
2021/05/17 12:49:55;;;;;;;6.60;6.20;;;17.80;99.90;;;;;;5059204;28;20206;-78
2021/05/17 12:52:33;;;;;;;6.50;6.10;;;17.80;99.90;;;;;;5076511;28;20812;-77
2021/05/17 12:55:19;;;;;;;6.30;5.90;;;17.90;99.90;;;;;;5076306;28;20231;-77
2021/05/17 12:57:51;;;;;;;5.70;5.40;;;18.00;99.90;;;;;;5073630;28;20309;-78
2021/05/17 13:00:40;;;;;;;6.07;5.67;;;18.10;99.90;;;;;;5065957;28;20205;-78
2021/05/17 13:03:10;;;;;;;5.50;5.20;;;18.10;99.90;;;;;;5053521;28;20303;-77
2021/05/17 13:05:51;;;;;;;5.70;5.40;;;18.00;99.90;;;;;;5075627;28;20229;-77
2021/05/17 13:08:19;;;;;;;5.70;5.40;;;18.10;99.90;;;;;;5065769;28;20215;-77
2021/05/17 13:10:56;;;;;;;6.13;5.77;;;18.20;99.90;;;;;;5050065;28;20573;-77
2021/05/17 13:13:41;;;;;;;6.10;5.80;;;18.00;99.90;;;;;;5071679;28;20268;-78
2021/05/17 13:16:11;;;;;;;5.60;5.30;;;17.70;99.90;;;;;;5065626;28;20609;-77